Valkyrie — WDI4483 — position and weather

sailwx.info

Track history (hours):
 
Tides and Currents Weather Stations Pressure Air Temp Water Temp Dewpoint Dewpoint Depression Visibility Wind Speed Wind Dir Waves Ship Positions

Valkyrie

Owner: town of winthrop, winthrop, MA. More information available from US FCC via Universal Licensing System and Coast Guard Vessel Documentation Center.

Last reported at 2018-Jul-23 15:30 UTC. Time now 2018-Jul-23 15:37 UTC.
Position N 42°22' W 070°58'.

Length 17 m.

Type: Passenger vessel. MMSI: 367699130.

Date/timePositionNaut miles runAvg speedWind from/ knotsBaromVisibWave heightAir tempDewpointWater temp
2018-Jul-23 15:30N 42°22' W 070°58'3 6.5
2018-Jul-23 15:01N 42°21' W 071°03'3 6.3
2018-Jul-23 14:30N 42°18' W 071°02'5 9.2
2018-Jul-23 14:00N 42°22' W 070°58'0 0.1
2018-Jul-23 13:30N 42°22' W 070°58'0 0.0
2018-Jul-21 12:32N 42°22' W 070°58'0 0.0
2018-Jul-21 12:26N 42°22' W 070°58'0 0.0
2018-Jul-21 11:56N 42°22' W 070°58'0 0.0
2018-Jul-21 11:29N 42°22' W 070°58'0 0.0
2018-Jul-21 10:59N 42°22' W 070°58'0 0.0
2018-Jul-21 10:29N 42°22' W 070°58'0 0.0
2018-Jul-21 09:56N 42°22' W 070°58'0 0.0
2018-Jul-21 09:26N 42°22' W 070°58'3 0.4
2018-Jul-21 01:15N 42°22' W 071°03'3 3.2
2018-Jul-21 00:17N 42°21' W 070°59'311.4
2018-Jul-21 00:00N 42°22' W 071°03'3 1.6
2018-Jul-20 22:07N 42°21' W 070°59'311.3
2018-Jul-20 21:52N 42°21' W 071°03'3 7.6
2018-Jul-20 21:27N 42°22' W 070°58'2 3.4
2018-Jul-20 20:48N 42°20' W 071°00'2 6.3
2018-Jul-20 20:26N 42°22' W 071°03'3 6.5
2018-Jul-20 19:55N 42°22' W 070°58'3 7.7
2018-Jul-20 19:29N 42°22' W 071°03'3 6.7
2018-Jul-20 18:59N 42°22' W 070°58'0 0.0
2018-Jul-20 18:29N 42°22' W 070°58'0 0.0
2018-Jul-20 17:59N 42°22' W 070°58'0 0.0
2018-Jul-20 17:20N 42°22' W 070°58'0 0.0
2018-Jul-20 16:59N 42°22' W 070°58'0 0.0
2018-Jul-20 16:17N 42°22' W 070°58'0 0.0
2018-Jul-20 15:56N 42°22' W 070°58'0 0.0
2018-Jul-20 15:29N 42°22' W 070°58'3 6.7
2018-Jul-20 14:59N 42°22' W 071°03'3 6.5
2018-Jul-20 14:27N 42°18' W 071°02'510.2
2018-Jul-20 13:59N 42°22' W 070°58'0 0.0
2018-Jul-20 13:26N 42°22' W 070°58'3 1.3
2018-Jul-20 10:57N 42°22' W 071°03'  
2018-Jul-17 20:37N 42°22' W 071°03'0 0.5
2018-Jul-17 20:28N 42°22' W 071°03'3 5.5
2018-Jul-17 19:52N 42°22' W 070°58'3 8.8
2018-Jul-17 19:29N 42°22' W 071°03'3 6.0
2018-Jul-17 18:56N 42°22' W 070°58'0 0.0
2018-Jul-17 18:26N 42°22' W 070°58'0 0.0
2018-Jul-17 17:56N 42°22' W 070°58'0 0.0
2018-Jul-17 17:23N 42°22' W 070°58'0 0.0
2018-Jul-17 16:56N 42°22' W 070°58'0 0.0
2018-Jul-17 16:26N 42°22' W 070°58'0 0.0
2018-Jul-17 15:56N 42°22' W 070°58'0 0.0
2018-Jul-17 15:26N 42°22' W 070°58'3 7.5
2018-Jul-17 15:00N 42°21' W 071°03'3 5.8
2018-Jul-17 14:28N 42°18' W 071°02'510.1
2018-Jul-17 14:00N 42°22' W 070°58'0 0.0
2018-Jul-17 13:30N 42°22' W 070°58'3 5.4
2018-Jul-17 13:00N 42°22' W 071°02'1 0.9
2018-Jul-17 12:22N 42°22' W 071°03'3 8.8
2018-Jul-17 12:00N 42°21' W 070°59'4 7.7
2018-Jul-17 11:30N 42°18' W 071°02'3 6.5
2018-Jul-17 11:00N 42°21' W 071°02'3 6.7
2018-Jul-17 10:31N 42°18' W 071°02'5 8.6
2018-Jul-17 09:58N 42°22' W 070°58'0 0.0
2018-Jul-17 01:07N 42°22' W 070°58'1 4.7
2018-Jul-17 01:00N 42°21' W 070°59'2 4.2
2018-Jul-17 00:29N 42°20' W 071°00'1 1.4
2018-Jul-16 23:31N 42°21' W 071°01'3 5.6
2018-Jul-16 23:00N 42°18' W 071°02'2 3.9
2018-Jul-16 22:30N 42°20' W 071°00'1 2.9
2018-Jul-16 22:00N 42°21' W 071°01'2 3.4
2018-Jul-16 21:30N 42°21' W 070°59'4 7.0
2018-Jul-16 21:00N 42°18' W 071°02'4 6.7
2018-Jul-16 20:29N 42°22' W 071°03'3 6.9
2018-Jul-16 20:00N 42°22' W 070°58'3 6.8
2018-Jul-16 19:30N 42°22' W 071°03'3 5.9
2018-Jul-16 18:56N 42°22' W 070°58'0 0.0
2018-Jul-16 18:29N 42°22' W 070°58'0 0.0
2018-Jul-16 17:59N 42°22' W 070°58'0 0.0
2018-Jul-16 17:29N 42°22' W 070°58'0 0.0
2018-Jul-16 16:59N 42°22' W 070°58'0 0.0
2018-Jul-16 16:26N 42°22' W 070°58'0 0.0
2018-Jul-16 15:59N 42°22' W 070°58'0 0.0
2018-Jul-16 15:29N 42°22' W 070°58'3 6.5
2018-Jul-16 15:00N 42°21' W 071°03'3 6.3
2018-Jul-16 14:30N 42°18' W 071°02'5 9.2
2018-Jul-16 14:00N 42°22' W 070°58'0 0.0
2018-Jul-16 13:30N 42°22' W 070°58'2 5.1
2018-Jul-16 13:00N 42°21' W 071°02'1 1.9
2018-Jul-16 12:30N 42°22' W 071°03'3 6.8
2018-Jul-16 12:00N 42°22' W 070°58'4 8.8
2018-Jul-16 11:30N 42°18' W 071°02'3 5.5
2018-Jul-16 11:00N 42°21' W 071°02'3 5.5
2018-Jul-16 10:31N 42°19' W 071°02'4 8.3
2018-Jul-16 09:59N 42°22' W 070°58'0 0.0
2018-Jul-15 23:48N 42°22' W 070°58'2 7.2
2018-Jul-15 23:30N 42°21' W 071°01'1 2.8
2018-Jul-15 23:00N 42°21' W 071°03'2 4.7
2018-Jul-15 22:30N 42°19' W 071°00'2 4.6
2018-Jul-15 21:59N 42°21' W 071°03'3 6.5
2018-Jul-15 21:30N 42°22' W 070°58'3 6.4
2018-Jul-15 21:00N 42°22' W 071°03'3 6.5
2018-Jul-15 20:29N 42°18' W 071°02'3 6.9
2018-Jul-15 20:00N 42°22' W 071°03'3 6.4
2018-Jul-15 19:29N 42°22' W 070°58'0 0.0
2018-Jul-15 16:57N 42°22' W 070°58'3 7.6
2018-Jul-15 16:30N 42°22' W 071°03'3 6.5
2018-Jul-15 16:00N 42°22' W 070°59'4 7.0
2018-Jul-15 15:30N 42°19' W 071°01'3 5.5
2018-Jul-15 15:00N 42°22' W 071°03'4 5.6
2018-Jul-15 14:23N 42°18' W 071°02'511.4
2018-Jul-15 13:58N 42°22' W 070°58'3 6.0
2018-Jul-15 13:30N 42°22' W 071°02'3 0.2
2018-Jul-15 02:01N 42°22' W 070°58'0 0.0
2018-Jul-15 02:00N 42°22' W 070°58'5 9.3
2018-Jul-15 01:30N 42°18' W 071°02'4 7.0
2018-Jul-15 01:00N 42°22' W 071°03'3 6.5
2018-Jul-15 00:30N 42°22' W 070°58'0 0.0
2018-Jul-15 00:00N 42°22' W 070°58'2 4.6
2018-Jul-14 23:30N 42°21' W 071°01'1 1.4
2018-Jul-14 23:00N 42°21' W 071°02'2 4.0
2018-Jul-14 22:30N 42°20' W 071°00'2 4.8
2018-Jul-14 22:00N 42°21' W 071°03'3 5.4
2018-Jul-14 21:28N 42°21' W 070°59'3 6.3
2018-Jul-14 21:00N 42°21' W 071°03'3 5.3
2018-Jul-14 20:30N 42°19' W 071°02'3 5.2
2018-Jul-14 20:00N 42°21' W 071°03'3 6.5
2018-Jul-14 19:30N 42°22' W 070°58'3 6.3
2018-Jul-14 19:01N 42°19' W 071°01'3 1.9
2018-Jul-14 17:23N 42°22' W 070°59'3 7.0
2018-Jul-14 17:00N 42°22' W 071°02'2 4.7
2018-Jul-14 16:30N 42°20' W 070°60'1 2.2
2018-Jul-14 16:00N 42°19' W 071°00'2 4.1
2018-Jul-14 15:30N 42°21' W 071°02'1 2.4
2018-Jul-14 15:00N 42°21' W 071°01'3 5.0
2018-Jul-14 14:29N 42°18' W 071°02'5 4.5
2018-Jul-14 13:27N 42°22' W 070°58'0 0.0
2018-Jul-14 12:58N 42°22' W 070°58'0 0.0
2018-Jul-14 12:28N 42°22' W 070°58'0 0.0
2018-Jul-14 11:58N 42°22' W 070°58'0 0.0
2018-Jul-14 11:28N 42°22' W 070°58'0 0.0
2018-Jul-14 10:52N 42°22' W 070°58'0 0.0
2018-Jul-14 10:28N 42°22' W 070°58'0 0.0
2018-Jul-14 09:58N 42°22' W 070°58'0 0.0
2018-Jul-14 09:28N 42°22' W 070°58'0 0.0
2018-Jul-14 08:58N 42°22' W 070°58'0 0.0
2018-Jul-14 08:22N 42°22' W 070°58'0 0.0
2018-Jul-14 07:58N 42°22' W 070°58'0 0.0
2018-Jul-14 07:28N 42°22' W 070°58'0 0.0
2018-Jul-14 06:55N 42°22' W 070°58'0 0.0
2018-Jul-14 06:28N 42°22' W 070°58'0 0.0
2018-Jul-14 05:58N 42°22' W 070°58'0 0.0
2018-Jul-14 05:28N 42°22' W 070°58'0 0.0
2018-Jul-14 04:58N 42°22' W 070°58'0 0.0
2018-Jul-14 04:28N 42°22' W 070°58'0 0.0
2018-Jul-14 03:58N 42°22' W 070°58'0 0.0
2018-Jul-14 03:28N 42°22' W 070°58'0 0.0
2018-Jul-14 02:58N 42°22' W 070°58'0 0.0
2018-Jul-14 02:28N 42°22' W 070°58'0 0.0
2018-Jul-14 01:59N 42°22' W 070°58'3 6.4
2018-Jul-14 01:30N 42°19' W 071°01'2 4.8
2018-Jul-14 01:00N 42°21' W 071°03'3 6.0
2018-Jul-14 00:29N 42°22' W 070°58'3 6.8
2018-Jul-13 23:59N 42°22' W 071°03'3 6.9
2018-Jul-13 23:30N 42°22' W 070°58'3 5.4
2018-Jul-13 23:00N 42°20' W 071°00'0 0.2
2018-Jul-13 22:30N 42°20' W 071°00'1 2.9
2018-Jul-13 22:00N 42°21' W 071°01'2 3.6
2018-Jul-13 21:30N 42°21' W 070°59'4 7.0
2018-Jul-13 20:59N 42°18' W 071°02'4 7.2
2018-Jul-13 20:30N 42°22' W 071°03'3 6.6
2018-Jul-13 20:00N 42°22' W 070°58'3 6.8
2018-Jul-13 19:30N 42°22' W 071°03'3 6.2
2018-Jul-13 18:58N 42°22' W 070°58'0 0.0
2018-Jul-13 17:04N 42°22' W 070°58'0 0.0
2018-Jul-13 16:55N 42°22' W 070°58'0 0.0
2018-Jul-13 16:30N 42°22' W 070°58'0 0.0
2018-Jul-13 16:00N 42°22' W 070°58'1 1.1
2018-Jul-13 15:30N 42°22' W 070°59'  
Track history (hours):
 
Tides and Currents Weather Stations Pressure Air Temp Water Temp Dewpoint Dewpoint Depression Visibility Wind Speed Wind Dir Waves Ship Positions

Valkyrie

Owner: town of winthrop, winthrop, MA. More information available from US FCC via Universal Licensing System and Coast Guard Vessel Documentation Center.

Last reported at 2018-Jul-23 15:30 UTC. Time now 2018-Jul-23 15:37 UTC.
Position N 42°22' W 070°58'.

Length 17 m.

Type: Passenger vessel. MMSI: 367699130.

Date/timePositionNaut miles runAvg speedWind from/ knotsBaromVisibWave heightAir tempDewpointWater temp
2018-Jul-23 15:30N 42°22' W 070°58'3 6.5
2018-Jul-23 15:01N 42°21' W 071°03'3 6.3
2018-Jul-23 14:30N 42°18' W 071°02'5 9.2
2018-Jul-23 14:00N 42°22' W 070°58'0 0.1
2018-Jul-23 13:30N 42°22' W 070°58'0 0.0
2018-Jul-21 12:32N 42°22' W 070°58'0 0.0
2018-Jul-21 12:26N 42°22' W 070°58'0 0.0
2018-Jul-21 11:56N 42°22' W 070°58'0 0.0
2018-Jul-21 11:29N 42°22' W 070°58'0 0.0
2018-Jul-21 10:59N 42°22' W 070°58'0 0.0
2018-Jul-21 10:29N 42°22' W 070°58'0 0.0
2018-Jul-21 09:56N 42°22' W 070°58'0 0.0
2018-Jul-21 09:26N 42°22' W 070°58'3 0.4
2018-Jul-21 01:15N 42°22' W 071°03'3 3.2
2018-Jul-21 00:17N 42°21' W 070°59'311.4
2018-Jul-21 00:00N 42°22' W 071°03'3 1.6
2018-Jul-20 22:07N 42°21' W 070°59'311.3
2018-Jul-20 21:52N 42°21' W 071°03'3 7.6
2018-Jul-20 21:27N 42°22' W 070°58'2 3.4
2018-Jul-20 20:48N 42°20' W 071°00'2 6.3
2018-Jul-20 20:26N 42°22' W 071°03'3 6.5
2018-Jul-20 19:55N 42°22' W 070°58'3 7.7
2018-Jul-20 19:29N 42°22' W 071°03'3 6.7
2018-Jul-20 18:59N 42°22' W 070°58'0 0.0
2018-Jul-20 18:29N 42°22' W 070°58'0 0.0
2018-Jul-20 17:59N 42°22' W 070°58'0 0.0
2018-Jul-20 17:20N 42°22' W 070°58'0 0.0
2018-Jul-20 16:59N 42°22' W 070°58'0 0.0
2018-Jul-20 16:17N 42°22' W 070°58'0 0.0
2018-Jul-20 15:56N 42°22' W 070°58'0 0.0
2018-Jul-20 15:29N 42°22' W 070°58'3 6.7
2018-Jul-20 14:59N 42°22' W 071°03'3 6.5
2018-Jul-20 14:27N 42°18' W 071°02'510.2
2018-Jul-20 13:59N 42°22' W 070°58'0 0.0
2018-Jul-20 13:26N 42°22' W 070°58'3 1.3
2018-Jul-20 10:57N 42°22' W 071°03'  
2018-Jul-17 20:37N 42°22' W 071°03'0 0.5
2018-Jul-17 20:28N 42°22' W 071°03'3 5.5
2018-Jul-17 19:52N 42°22' W 070°58'3 8.8
2018-Jul-17 19:29N 42°22' W 071°03'3 6.0
2018-Jul-17 18:56N 42°22' W 070°58'0 0.0
2018-Jul-17 18:26N 42°22' W 070°58'0 0.0
2018-Jul-17 17:56N 42°22' W 070°58'0 0.0
2018-Jul-17 17:23N 42°22' W 070°58'0 0.0
2018-Jul-17 16:56N 42°22' W 070°58'0 0.0
2018-Jul-17 16:26N 42°22' W 070°58'0 0.0
2018-Jul-17 15:56N 42°22' W 070°58'0 0.0
2018-Jul-17 15:26N 42°22' W 070°58'3 7.5
2018-Jul-17 15:00N 42°21' W 071°03'3 5.8
2018-Jul-17 14:28N 42°18' W 071°02'510.1
2018-Jul-17 14:00N 42°22' W 070°58'0 0.0
2018-Jul-17 13:30N 42°22' W 070°58'3 5.4
2018-Jul-17 13:00N 42°22' W 071°02'1 0.9
2018-Jul-17 12:22N 42°22' W 071°03'3 8.8
2018-Jul-17 12:00N 42°21' W 070°59'4 7.7
2018-Jul-17 11:30N 42°18' W 071°02'3 6.5
2018-Jul-17 11:00N 42°21' W 071°02'3 6.7
2018-Jul-17 10:31N 42°18' W 071°02'5 8.6
2018-Jul-17 09:58N 42°22' W 070°58'0 0.0
2018-Jul-17 01:07N 42°22' W 070°58'1 4.7
2018-Jul-17 01:00N 42°21' W 070°59'2 4.2
2018-Jul-17 00:29N 42°20' W 071°00'1 1.4
2018-Jul-16 23:31N 42°21' W 071°01'3 5.6
2018-Jul-16 23:00N 42°18' W 071°02'2 3.9
2018-Jul-16 22:30N 42°20' W 071°00'1 2.9
2018-Jul-16 22:00N 42°21' W 071°01'2 3.4
2018-Jul-16 21:30N 42°21' W 070°59'4 7.0
2018-Jul-16 21:00N 42°18' W 071°02'4 6.7
2018-Jul-16 20:29N 42°22' W 071°03'3 6.9
2018-Jul-16 20:00N 42°22' W 070°58'3 6.8
2018-Jul-16 19:30N 42°22' W 071°03'3 5.9
2018-Jul-16 18:56N 42°22' W 070°58'0 0.0
2018-Jul-16 18:29N 42°22' W 070°58'0 0.0
2018-Jul-16 17:59N 42°22' W 070°58'0 0.0
2018-Jul-16 17:29N 42°22' W 070°58'0 0.0
2018-Jul-16 16:59N 42°22' W 070°58'0 0.0
2018-Jul-16 16:26N 42°22' W 070°58'0 0.0
2018-Jul-16 15:59N 42°22' W 070°58'0 0.0
2018-Jul-16 15:29N 42°22' W 070°58'3 6.5
2018-Jul-16 15:00N 42°21' W 071°03'3 6.3
2018-Jul-16 14:30N 42°18' W 071°02'5 9.2
2018-Jul-16 14:00N 42°22' W 070°58'0 0.0
2018-Jul-16 13:30N 42°22' W 070°58'2 5.1
2018-Jul-16 13:00N 42°21' W 071°02'1 1.9
2018-Jul-16 12:30N 42°22' W 071°03'3 6.8
2018-Jul-16 12:00N 42°22' W 070°58'4 8.8
2018-Jul-16 11:30N 42°18' W 071°02'3 5.5
2018-Jul-16 11:00N 42°21' W 071°02'3 5.5
2018-Jul-16 10:31N 42°19' W 071°02'4 8.3
2018-Jul-16 09:59N 42°22' W 070°58'0 0.0
2018-Jul-15 23:48N 42°22' W 070°58'2 7.2
2018-Jul-15 23:30N 42°21' W 071°01'1 2.8
2018-Jul-15 23:00N 42°21' W 071°03'2 4.7
2018-Jul-15 22:30N 42°19' W 071°00'2 4.6
2018-Jul-15 21:59N 42°21' W 071°03'3 6.5
2018-Jul-15 21:30N 42°22' W 070°58'3 6.4
2018-Jul-15 21:00N 42°22' W 071°03'3 6.5
2018-Jul-15 20:29N 42°18' W 071°02'3 6.9
2018-Jul-15 20:00N 42°22' W 071°03'3 6.4
2018-Jul-15 19:29N 42°22' W 070°58'0 0.0
2018-Jul-15 16:57N 42°22' W 070°58'3 7.6
2018-Jul-15 16:30N 42°22' W 071°03'3 6.5
2018-Jul-15 16:00N 42°22' W 070°59'4 7.0
2018-Jul-15 15:30N 42°19' W 071°01'3 5.5
2018-Jul-15 15:00N 42°22' W 071°03'4 5.6
2018-Jul-15 14:23N 42°18' W 071°02'511.4
2018-Jul-15 13:58N 42°22' W 070°58'3 6.0
2018-Jul-15 13:30N 42°22' W 071°02'3 0.2
2018-Jul-15 02:01N 42°22' W 070°58'0 0.0
2018-Jul-15 02:00N 42°22' W 070°58'5 9.3
2018-Jul-15 01:30N 42°18' W 071°02'4 7.0
2018-Jul-15 01:00N 42°22' W 071°03'3 6.5
2018-Jul-15 00:30N 42°22' W 070°58'0 0.0
2018-Jul-15 00:00N 42°22' W 070°58'2 4.6
2018-Jul-14 23:30N 42°21' W 071°01'1 1.4
2018-Jul-14 23:00N 42°21' W 071°02'2 4.0
2018-Jul-14 22:30N 42°20' W 071°00'2 4.8
2018-Jul-14 22:00N 42°21' W 071°03'3 5.4
2018-Jul-14 21:28N 42°21' W 070°59'3 6.3
2018-Jul-14 21:00N 42°21' W 071°03'3 5.3
2018-Jul-14 20:30N 42°19' W 071°02'3 5.2
2018-Jul-14 20:00N 42°21' W 071°03'3 6.5
2018-Jul-14 19:30N 42°22' W 070°58'3 6.3
2018-Jul-14 19:01N 42°19' W 071°01'3 1.9
2018-Jul-14 17:23N 42°22' W 070°59'3 7.0
2018-Jul-14 17:00N 42°22' W 071°02'2 4.7
2018-Jul-14 16:30N 42°20' W 070°60'1 2.2
2018-Jul-14 16:00N 42°19' W 071°00'2 4.1
2018-Jul-14 15:30N 42°21' W 071°02'1 2.4
2018-Jul-14 15:00N 42°21' W 071°01'3 5.0
2018-Jul-14 14:29N 42°18' W 071°02'5 4.5
2018-Jul-14 13:27N 42°22' W 070°58'0 0.0
2018-Jul-14 12:58N 42°22' W 070°58'0 0.0
2018-Jul-14 12:28N 42°22' W 070°58'0 0.0
2018-Jul-14 11:58N 42°22' W 070°58'0 0.0
2018-Jul-14 11:28N 42°22' W 070°58'0 0.0
2018-Jul-14 10:52N 42°22' W 070°58'0 0.0
2018-Jul-14 10:28N 42°22' W 070°58'0 0.0
2018-Jul-14 09:58N 42°22' W 070°58'0 0.0
2018-Jul-14 09:28N 42°22' W 070°58'0 0.0
2018-Jul-14 08:58N 42°22' W 070°58'0 0.0
2018-Jul-14 08:22N 42°22' W 070°58'0 0.0
2018-Jul-14 07:58N 42°22' W 070°58'0 0.0
2018-Jul-14 07:28N 42°22' W 070°58'0 0.0
2018-Jul-14 06:55N 42°22' W 070°58'0 0.0
2018-Jul-14 06:28N 42°22' W 070°58'0 0.0
2018-Jul-14 05:58N 42°22' W 070°58'0 0.0
2018-Jul-14 05:28N 42°22' W 070°58'0 0.0
2018-Jul-14 04:58N 42°22' W 070°58'0 0.0
2018-Jul-14 04:28N 42°22' W 070°58'0 0.0
2018-Jul-14 03:58N 42°22' W 070°58'0 0.0
2018-Jul-14 03:28N 42°22' W 070°58'0 0.0
2018-Jul-14 02:58N 42°22' W 070°58'0 0.0
2018-Jul-14 02:28N 42°22' W 070°58'0 0.0
2018-Jul-14 01:59N 42°22' W 070°58'3 6.4
2018-Jul-14 01:30N 42°19' W 071°01'2 4.8
2018-Jul-14 01:00N 42°21' W 071°03'3 6.0
2018-Jul-14 00:29N 42°22' W 070°58'3 6.8
2018-Jul-13 23:59N 42°22' W 071°03'3 6.9
2018-Jul-13 23:30N 42°22' W 070°58'3 5.4
2018-Jul-13 23:00N 42°20' W 071°00'0 0.2
2018-Jul-13 22:30N 42°20' W 071°00'1 2.9
2018-Jul-13 22:00N 42°21' W 071°01'2 3.6
2018-Jul-13 21:30N 42°21' W 070°59'4 7.0
2018-Jul-13 20:59N 42°18' W 071°02'4 7.2
2018-Jul-13 20:30N 42°22' W 071°03'3 6.6
2018-Jul-13 20:00N 42°22' W 070°58'3 6.8
2018-Jul-13 19:30N 42°22' W 071°03'3 6.2
2018-Jul-13 18:58N 42°22' W 070°58'0 0.0
2018-Jul-13 17:04N 42°22' W 070°58'0 0.0
2018-Jul-13 16:55N 42°22' W 070°58'0 0.0
2018-Jul-13 16:30N 42°22' W 070°58'0 0.0
2018-Jul-13 16:00N 42°22' W 070°58'1 1.1
2018-Jul-13 15:30N 42°22' W 070°59'  

Dump ship's entire track history